Time;durP1;ratioP1;P1;durP2;ratioP2;P2;SDS_P1;SDS_P2;PMS_P1;PMS_P2;Temp;Humidity;BMP_temperature;BMP_pressure;BME280_temperature;BME280_humidity;BME280_pressure;Samples;Min_cycle;Max_cycle;Signal;HPM_P1;HPM_P2
2023/11/29 19:12:23;;;;;;;;;66.50;54.75;;;;;;;;5106666;27;13505;-75
2023/11/29 19:14:49;;;;;;;;;62.33;50.00;;;;;;;;5108309;28;8795;-73
2023/11/29 19:17:14;;;;;;;;;67.00;52.67;;;;;;;;5108871;28;8788;-72
2023/11/29 19:19:40;;;;;;;;;57.00;49.00;;;;;;;;5108090;28;8884;-83
2023/11/29 19:22:05;;;;;;;;;65.67;52.00;;;;;;;;5108461;28;8804;-75
2023/11/29 19:24:30;;;;;;;;;61.00;49.33;;;;;;;;5108202;28;8944;-77
2023/11/29 19:26:56;;;;;;;;;61.67;48.67;;;;;;;;5107885;28;8806;-79
2023/11/29 19:29:21;;;;;;;;;58.00;47.67;;;;;;;;5106719;28;8948;-76
2023/11/29 19:31:46;;;;;;;;;66.00;52.67;;;;;;;;5109924;28;8821;-75
2023/11/29 19:34:12;;;;;;;;;68.00;55.33;;;;;;;;5107847;28;9715;-76
2023/11/29 19:36:37;;;;;;;;;73.33;56.33;;;;;;;;5106484;28;8791;-78
2023/11/29 19:39:02;;;;;;;;;72.67;55.33;;;;;;;;5120979;27;8856;-78
2023/11/29 19:41:28;;;;;;;;;67.67;55.33;;;;;;;;5121097;27;8895;-77
2023/11/29 19:43:53;;;;;;;;;61.67;50.33;;;;;;;;5116620;27;8812;-81
2023/11/29 19:46:18;;;;;;;;;59.33;47.33;;;;;;;;5122362;27;8904;-77
2023/11/29 19:48:44;;;;;;;;;62.00;51.00;;;;;;;;5117041;28;8909;-78
2023/11/29 19:51:09;;;;;;;;;59.00;48.33;;;;;;;;5112568;27;9674;-80
2023/11/29 19:53:35;;;;;;;;;63.33;49.33;;;;;;;;5122651;27;8797;-82
2023/11/29 19:56:00;;;;;;;;;59.00;47.00;;;;;;;;5114992;28;8883;-78
2023/11/29 19:58:25;;;;;;;;;68.67;56.67;;;;;;;;5117608;27;8770;-76
2023/11/29 20:00:50;;;;;;;;;61.33;49.00;;;;;;;;5109912;28;9657;-76
2023/11/29 20:03:16;;;;;;;;;61.33;44.00;;;;;;;;5109952;28;8779;-77
2023/11/29 20:05:41;;;;;;;;;56.00;45.67;;;;;;;;5107219;28;8812;-79
2023/11/29 20:08:09;;;;;;;;;58.33;48.33;;;;;;;;5107125;28;8792;-78
2023/11/29 20:10:35;;;;;;;;;49.33;44.00;;;;;;;;5107488;28;8820;-78
2023/11/29 20:13:01;;;;;;;;;47.67;42.00;;;;;;;;5107687;28;11557;-77
2023/11/29 20:15:26;;;;;;;;;55.00;42.00;;;;;;;;5107191;28;8776;-77
2023/11/29 20:17:51;;;;;;;;;52.67;41.00;;;;;;;;5107204;28;8796;-77
2023/11/29 20:20:17;;;;;;;;;46.00;41.00;;;;;;;;5107082;28;8900;-77
2023/11/29 20:22:42;;;;;;;;;49.33;39.67;;;;;;;;5099176;28;8812;-78
2023/11/29 20:25:08;;;;;;;;;54.67;42.00;;;;;;;;5093456;28;8792;-77
2023/11/29 20:27:34;;;;;;;;;53.67;44.33;;;;;;;;5093270;28;8799;-78
2023/11/29 20:29:59;;;;;;;;;50.67;43.00;;;;;;;;5086987;28;8794;-76
2023/11/29 20:32:25;;;;;;;;;49.00;39.25;;;;;;;;5083293;28;11532;-77
2023/11/29 20:34:50;;;;;;;;;36.25;35.75;;;;;;;;5094064;28;8849;-74
2023/11/29 20:37:15;;;;;;;;;39.50;35.50;;;;;;;;5092814;28;8907;-75
2023/11/29 20:39:41;;;;;;;;;44.00;37.75;;;;;;;;5092569;28;8808;-74
2023/11/29 20:42:06;;;;;;;;;49.75;41.25;;;;;;;;5094145;28;8819;-73
2023/11/29 20:44:32;;;;;;;;;50.00;42.33;;;;;;;;5092203;28;8823;-73
2023/11/29 20:46:57;;;;;;;;;53.00;45.00;;;;;;;;5092653;28;8784;-72
2023/11/29 20:49:22;;;;;;;;;64.33;53.33;;;;;;;;5092339;28;8788;-72
2023/11/29 20:51:48;;;;;;;;;71.33;58.00;;;;;;;;5092393;28;8918;-72
2023/11/29 20:54:15;;;;;;;;;59.00;49.33;;;;;;;;5092374;28;8777;-73
2023/11/29 20:56:40;;;;;;;;;75.00;58.00;;;;;;;;5092370;28;9557;-72
2023/11/29 20:59:05;;;;;;;;;70.33;56.00;;;;;;;;5092283;28;8807;-72
2023/11/29 21:01:31;;;;;;;;;73.67;56.33;;;;;;;;5092195;28;8826;-72
2023/11/29 21:03:56;;;;;;;;;68.33;56.00;;;;;;;;5093197;28;8922;-73
2023/11/29 21:06:21;;;;;;;;;70.67;59.00;;;;;;;;5092145;28;8832;-73
2023/11/29 21:08:49;;;;;;;;;78.00;60.33;;;;;;;;5091717;28;9618;-73
2023/11/29 21:11:17;;;;;;;;;73.00;58.33;;;;;;;;5092464;28;8832;-73
2023/11/29 21:13:43;;;;;;;;;71.67;57.67;;;;;;;;5092627;28;8807;-73
2023/11/29 21:16:08;;;;;;;;;75.00;60.33;;;;;;;;5091940;28;9592;-73
2023/11/29 21:18:33;;;;;;;;;71.33;59.33;;;;;;;;5090568;28;8822;-72
2023/11/29 21:20:58;;;;;;;;;74.00;59.67;;;;;;;;5090039;28;8889;-72
2023/11/29 21:23:24;;;;;;;;;76.67;60.00;;;;;;;;5091882;28;8860;-71
2023/11/29 21:25:49;;;;;;;;;78.33;63.33;;;;;;;;5094780;28;8840;-72
2023/11/29 21:28:14;;;;;;;;;77.00;61.33;;;;;;;;5085350;28;8895;-72
2023/11/29 21:30:39;;;;;;;;;82.67;66.33;;;;;;;;5074764;28;8830;-73
2023/11/29 21:33:05;;;;;;;;;80.00;62.00;;;;;;;;5071686;28;8829;-73
2023/11/29 21:35:30;;;;;;;;;73.00;60.00;;;;;;;;5072557;28;8778;-73
2023/11/29 21:37:55;;;;;;;;;75.33;60.33;;;;;;;;5071935;28;8795;-74
2023/11/29 21:40:21;;;;;;;;;71.33;59.33;;;;;;;;5071843;28;8833;-73
2023/11/29 21:42:46;;;;;;;;;75.33;59.00;;;;;;;;5071362;28;8821;-74
2023/11/29 21:45:12;;;;;;;;;72.33;58.33;;;;;;;;5073846;28;8811;-74
2023/11/29 21:47:37;;;;;;;;;78.33;60.67;;;;;;;;5070661;28;8818;-76
2023/11/29 21:50:02;;;;;;;;;73.00;60.00;;;;;;;;5071278;28;8799;-75
2023/11/29 21:52:28;;;;;;;;;72.67;59.33;;;;;;;;5071606;28;8871;-75
2023/11/29 21:54:53;;;;;;;;;71.33;58.33;;;;;;;;5083084;28;8785;-75
2023/11/29 21:57:18;;;;;;;;;73.67;59.33;;;;;;;;5112414;28;8785;-72
2023/11/29 21:59:45;;;;;;;;;73.33;57.33;;;;;;;;5112034;28;8770;-71
2023/11/29 22:02:10;;;;;;;;;74.00;59.33;;;;;;;;5098716;28;8807;-70
2023/11/29 22:04:35;;;;;;;;;74.67;59.33;;;;;;;;5092487;28;8784;-72
2023/11/29 22:07:01;;;;;;;;;63.00;52.00;;;;;;;;5090191;28;8784;-71
2023/11/29 22:09:26;;;;;;;;;69.00;57.33;;;;;;;;5090915;28;8788;-71
2023/11/29 22:11:52;;;;;;;;;74.33;60.33;;;;;;;;5090252;28;8824;-71
2023/11/29 22:14:17;;;;;;;;;72.33;59.00;;;;;;;;5091098;28;8776;-71
2023/11/29 22:16:42;;;;;;;;;71.33;58.67;;;;;;;;5091791;28;8816;-72
2023/11/29 22:19:11;;;;;;;;;73.67;59.00;;;;;;;;5088093;28;9571;-73
2023/11/29 22:21:37;;;;;;;;;74.67;59.00;;;;;;;;5089433;28;8788;-73
2023/11/29 22:24:02;;;;;;;;;69.33;56.00;;;;;;;;5089650;28;8820;-73
2023/11/29 22:26:27;;;;;;;;;63.67;52.00;;;;;;;;5088608;28;8934;-72
2023/11/29 22:28:52;;;;;;;;;66.33;55.33;;;;;;;;5089021;28;9513;-71
2023/11/29 22:31:18;;;;;;;;;71.33;59.00;;;;;;;;5089365;28;8944;-72
2023/11/29 22:33:43;;;;;;;;;71.33;57.33;;;;;;;;5089383;28;8889;-71
2023/11/29 22:36:13;;;;;;;;;68.00;56.67;;;;;;;;5090994;28;8784;-71
2023/11/29 22:38:38;;;;;;;;;69.67;57.67;;;;;;;;5089486;28;8888;-77
2023/11/29 22:41:04;;;;;;;;;64.33;52.33;;;;;;;;5092605;28;8788;-77
2023/11/29 22:43:29;;;;;;;;;49.00;42.67;;;;;;;;5090813;28;8781;-75
2023/11/29 22:45:54;;;;;;;;;53.00;43.25;;;;;;;;5091792;28;8744;-74
2023/11/29 22:48:19;;;;;;;;;48.75;43.50;;;;;;;;5093098;28;8776;-76
2023/11/29 22:50:45;;;;;;;;;43.00;40.25;;;;;;;;5089696;28;8851;-76
2023/11/29 22:53:10;;;;;;;;;38.00;33.25;;;;;;;;5090990;28;8788;-76
2023/11/29 22:55:35;;;;;;;;;40.50;37.00;;;;;;;;5090574;28;9607;-77
2023/11/29 22:58:03;;;;;;;;;34.25;31.00;;;;;;;;5090807;28;8792;-76
2023/11/29 23:00:28;;;;;;;;;41.50;34.75;;;;;;;;5091105;28;9572;-77
2023/11/29 23:02:54;;;;;;;;;44.75;37.00;;;;;;;;5089530;28;11511;-77
2023/11/29 23:05:19;;;;;;;;;38.50;34.75;;;;;;;;5090922;28;8792;-77
2023/11/29 23:07:44;;;;;;;;;43.75;36.75;;;;;;;;5090952;28;8776;-80
2023/11/29 23:10:09;;;;;;;;;38.50;34.50;;;;;;;;5089267;28;9453;-77
2023/11/29 23:12:35;;;;;;;;;44.33;39.67;;;;;;;;5090888;28;8784;-79
2023/11/29 23:15:00;;;;;;;;;42.33;35.00;;;;;;;;5090451;28;8804;-79
2023/11/29 23:17:25;;;;;;;;;47.33;40.67;;;;;;;;5091390;28;8792;-81
2023/11/29 23:19:51;;;;;;;;;40.25;37.75;;;;;;;;5088701;28;8902;-81
2023/11/29 23:22:16;;;;;;;;;48.00;39.75;;;;;;;;5090372;28;8807;-79
2023/11/29 23:24:41;;;;;;;;;39.00;36.25;;;;;;;;5090208;28;8816;-79
2023/11/29 23:27:07;;;;;;;;;44.75;38.00;;;;;;;;5090320;28;8808;-78
2023/11/29 23:29:32;;;;;;;;;44.00;39.75;;;;;;;;5089599;28;8816;-79
2023/11/29 23:31:57;;;;;;;;;43.50;38.00;;;;;;;;5089279;28;8827;-79
2023/11/29 23:34:22;;;;;;;;;39.25;36.75;;;;;;;;5089279;28;8888;-78
2023/11/29 23:36:48;;;;;;;;;43.25;38.50;;;;;;;;5090926;28;8784;-78
2023/11/29 23:39:13;;;;;;;;;35.25;27.25;;;;;;;;5090665;28;8821;-75
2023/11/29 23:41:38;;;;;;;;;40.50;37.25;;;;;;;;5090434;28;8796;-76
2023/11/29 23:44:03;;;;;;;;;39.50;34.25;;;;;;;;5090485;28;8815;-77
2023/11/29 23:46:29;;;;;;;;;34.00;32.50;;;;;;;;5092615;28;8780;-76
2023/11/29 23:48:54;;;;;;;;;40.25;35.25;;;;;;;;5113005;28;8812;-76
